createdAt,value
2022-10-17T00:00:12.389Z,84.33
2022-10-17T00:02:39.025Z,84.09
2022-10-17T00:05:05.952Z,84.36
2022-10-17T00:07:32.658Z,84.24
2022-10-17T00:09:59.920Z,84.50
2022-10-17T00:12:26.633Z,84.40
2022-10-17T00:14:53.267Z,84.21
2022-10-17T00:17:21.567Z,84.29
2022-10-17T00:19:48.432Z,84.35
2022-10-17T00:22:15.031Z,84.05
2022-10-17T00:24:41.704Z,84.40
2022-10-17T00:27:08.424Z,84.66
2022-10-17T00:29:35.081Z,84.62
2022-10-17T00:32:01.776Z,84.53
2022-10-17T00:34:31.616Z,84.77
2022-10-17T00:36:58.654Z,84.37
2022-10-17T00:39:25.494Z,84.72
2022-10-17T00:41:52.226Z,84.65
2022-10-17T00:44:56.218Z,84.59
2022-10-17T00:47:23.105Z,84.70
2022-10-17T00:49:51.466Z,84.68
2022-10-17T00:52:21.537Z,84.65
2022-10-17T00:54:51.969Z,84.65
2022-10-17T00:57:18.798Z,84.68
2022-10-17T00:59:49.186Z,84.86
2022-10-17T01:02:18.595Z,84.78
2022-10-17T01:04:47.953Z,84.87
2022-10-17T01:07:17.066Z,85.01
2022-10-17T01:09:46.874Z,84.89
2022-10-17T01:12:20.476Z,84.95
2022-10-17T01:14:58.138Z,85.17
2022-10-17T01:17:33.526Z,85.20
2022-10-17T01:20:26.526Z,85.25
2022-10-17T01:23:07.019Z,85.15
2022-10-17T01:25:43.008Z,85.18
2022-10-17T01:28:21.935Z,85.15
2022-10-17T01:31:12.636Z,85.25
2022-10-17T01:33:47.504Z,85.50
2022-10-17T01:36:23.972Z,85.52
2022-10-17T01:38:57.597Z,85.53
2022-10-17T01:41:35.713Z,85.43
2022-10-17T01:44:09.348Z,85.71
2022-10-17T01:46:39.071Z,85.63
2022-10-17T01:49:08.092Z,85.49
2022-10-17T01:51:39.447Z,85.68
2022-10-17T01:54:12.407Z,85.58
2022-10-17T01:56:41.615Z,85.84
2022-10-17T01:59:14.532Z,85.69
2022-10-17T02:01:44.984Z,85.57
2022-10-17T02:04:11.764Z,85.73
2022-10-17T02:06:38.728Z,85.64
2022-10-17T02:09:17.811Z,85.67
2022-10-17T02:11:52.648Z,85.82
2022-10-17T02:14:30.363Z,85.66
2022-10-17T02:17:09.113Z,86.00
2022-10-17T02:19:47.164Z,85.78
2022-10-17T02:22:25.072Z,85.91
2022-10-17T02:25:00.558Z,85.79
2022-10-17T02:27:40.831Z,85.94
2022-10-17T02:30:12.767Z,85.93
2022-10-17T02:32:50.425Z,85.89
2022-10-17T02:35:20.522Z,86.02
2022-10-17T02:37:47.878Z,85.96
2022-10-17T02:40:17.681Z,85.77
2022-10-17T02:42:46.187Z,86.18
2022-10-17T02:45:14.604Z,86.10
2022-10-17T02:47:50.661Z,86.24
2022-10-17T02:50:21.177Z,86.28
2022-10-17T02:52:54.646Z,86.36
2022-10-17T02:55:29.326Z,86.33
2022-10-17T02:58:04.395Z,86.34
2022-10-17T03:00:32.305Z,86.34
2022-10-17T03:03:00.285Z,86.25
2022-10-17T03:05:28.504Z,86.27
2022-10-17T03:07:56.355Z,86.63
2022-10-17T03:10:23.321Z,86.77
2022-10-17T03:12:50.079Z,86.59
2022-10-17T03:15:16.769Z,86.69
2022-10-17T03:20:11.789Z,86.93
2022-10-17T03:22:38.424Z,86.57
2022-10-17T03:25:05.510Z,86.73
2022-10-17T03:27:32.379Z,86.99
2022-10-17T03:29:59.239Z,87.22
2022-10-17T03:32:25.806Z,86.99
2022-10-17T03:34:52.596Z,87.11
2022-10-17T03:37:20.668Z,86.96
2022-10-17T03:39:47.319Z,86.86
2022-10-17T03:42:13.934Z,86.84
2022-10-17T03:44:40.591Z,86.75
2022-10-17T03:47:09.252Z,86.92
2022-10-17T03:49:38.805Z,87.15
2022-10-17T03:52:05.416Z,87.00
2022-10-17T03:54:33.489Z,86.77
2022-10-17T03:57:00.231Z,87.09
2022-10-17T03:59:26.998Z,86.97
2022-10-17T04:01:53.610Z,87.34
2022-10-17T04:04:20.238Z,87.14
2022-10-17T04:06:46.883Z,87.14
2022-10-17T04:09:13.550Z,87.37
2022-10-17T04:11:42.034Z,87.33
2022-10-17T04:14:10.698Z,87.40
2022-10-17T04:16:38.623Z,87.55
2022-10-17T04:19:05.421Z,87.48
2022-10-17T04:21:32.335Z,87.61
2022-10-17T04:24:00.620Z,87.34
2022-10-17T04:26:28.458Z,87.40
2022-10-17T04:28:56.500Z,87.63
2022-10-17T04:31:23.235Z,87.18
2022-10-17T04:33:50.676Z,87.17
2022-10-17T04:36:19.681Z,87.35
2022-10-17T04:38:46.723Z,87.10
2022-10-17T04:41:15.546Z,87.12
2022-10-17T04:43:45.524Z,87.06
2022-10-17T04:46:16.743Z,87.16
2022-10-17T04:48:43.519Z,87.32
2022-10-17T04:51:12.807Z,86.85
2022-10-17T04:53:40.366Z,87.08
2022-10-17T04:56:11.950Z,87.29
2022-10-17T04:58:39.805Z,87.03
2022-10-17T05:01:06.840Z,86.83
2022-10-17T05:03:36.219Z,86.90
2022-10-17T05:06:07.779Z,86.74
2022-10-17T05:08:34.961Z,86.85
2022-10-17T05:11:02.493Z,86.70
2022-10-17T05:13:29.700Z,86.96
2022-10-17T05:15:59.775Z,86.96
2022-10-17T05:18:26.651Z,87.06
2022-10-17T05:20:54.847Z,87.03
2022-10-17T05:23:21.592Z,87.30
2022-10-17T05:25:48.218Z,87.18
2022-10-17T05:28:14.910Z,87.27
2022-10-17T05:30:41.515Z,87.26
2022-10-17T05:33:08.198Z,87.07
2022-10-17T05:35:34.818Z,87.31
2022-10-17T05:38:02.848Z,87.27
2022-10-17T05:40:29.491Z,87.55
2022-10-17T05:42:56.175Z,87.51
2022-10-17T05:45:23.245Z,87.39
2022-10-17T05:47:49.847Z,87.77
2022-10-17T05:50:16.556Z,87.46
2022-10-17T05:52:45.188Z,87.62
2022-10-17T05:55:15.252Z,87.23
2022-10-17T05:57:41.845Z,87.42
2022-10-17T06:00:09.898Z,87.49
2022-10-17T06:02:36.590Z,87.84
2022-10-17T06:05:03.586Z,87.54
2022-10-17T06:07:30.160Z,87.67
2022-10-17T06:09:58.999Z,87.65
2022-10-17T06:12:27.794Z,87.57
2022-10-17T06:14:54.528Z,87.41
2022-10-17T06:17:21.392Z,87.50
2022-10-17T06:19:48.190Z,87.41
2022-10-17T06:22:15.051Z,87.60
2022-10-17T06:24:42.465Z,87.58
2022-10-17T06:27:11.091Z,87.50
2022-10-17T06:29:40.430Z,87.56
2022-10-17T06:32:09.893Z,87.53
2022-10-17T06:34:39.402Z,87.64
2022-10-17T06:37:06.231Z,87.66
2022-10-17T06:39:35.060Z,87.45
2022-10-17T06:42:02.420Z,87.41
2022-10-17T06:44:32.003Z,87.73
2022-10-17T06:47:00.965Z,87.92
2022-10-17T06:49:28.517Z,87.98
2022-10-17T06:51:55.104Z,87.98
2022-10-17T06:54:21.841Z,88.20
2022-10-17T06:56:48.491Z,88.08
2022-10-17T06:59:15.683Z,88.26
2022-10-17T07:01:46.134Z,88.41
2022-10-17T07:04:15.168Z,88.54
2022-10-17T07:06:41.817Z,88.49
2022-10-17T07:09:08.810Z,88.17
2022-10-17T07:11:35.723Z,88.24
2022-10-17T07:14:02.733Z,88.28
2022-10-17T07:16:29.555Z,88.17
2022-10-17T07:18:56.777Z,88.12
2022-10-17T07:21:24.817Z,88.02
2022-10-17T07:23:51.557Z,88.34
2022-10-17T07:26:19.097Z,88.28
2022-10-17T07:28:47.562Z,88.19
2022-10-17T07:31:16.404Z,88.13
2022-10-17T07:33:43.121Z,88.20
2022-10-17T07:36:09.878Z,87.84
2022-10-17T07:38:38.443Z,87.82
2022-10-17T07:41:07.516Z,87.81
2022-10-17T07:43:34.864Z,88.08
2022-10-17T07:46:02.203Z,88.02
2022-10-17T07:48:29.075Z,88.18
2022-10-17T07:50:55.847Z,88.34
2022-10-17T07:53:22.846Z,88.48
2022-10-17T07:55:51.412Z,88.52
2022-10-17T07:58:18.611Z,88.57
2022-10-17T08:00:48.425Z,88.59
2022-10-17T08:03:15.260Z,88.55
2022-10-17T08:05:42.098Z,88.56
2022-10-17T08:08:08.751Z,88.51
2022-10-17T08:10:35.424Z,88.50
2022-10-17T08:13:03.812Z,88.58
2022-10-17T08:15:32.186Z,88.52
2022-10-17T08:17:59.724Z,88.43
2022-10-17T08:20:26.700Z,88.55
2022-10-17T08:22:53.823Z,88.94
2022-10-17T08:25:21.401Z,88.79
2022-10-17T08:27:48.374Z,89.30
2022-10-17T08:30:17.645Z,89.60
2022-10-17T08:32:44.362Z,89.64
2022-10-17T08:35:11.304Z,89.71
2022-10-17T08:37:39.171Z,89.92
2022-10-17T08:40:07.639Z,90.16
2022-10-17T08:42:56.366Z,90.38
2022-10-17T08:45:32.728Z,90.26
2022-10-17T08:48:00.988Z,90.30
2022-10-17T08:50:35.784Z,90.34
2022-10-17T08:53:09.018Z,90.35
2022-10-17T08:55:41.286Z,90.74
2022-10-17T08:58:14.553Z,90.95
2022-10-17T09:00:48.272Z,90.91
2022-10-17T09:03:27.850Z,90.96
2022-10-17T09:06:01.242Z,90.92
2022-10-17T09:08:42.042Z,91.01
2022-10-17T09:11:19.770Z,91.37
2022-10-17T09:14:01.501Z,91.19
2022-10-17T09:16:53.004Z,91.17
2022-10-17T09:19:23.164Z,90.98
2022-10-17T09:21:53.766Z,91.09
2022-10-17T09:24:25.753Z,91.19
2022-10-17T09:26:54.836Z,91.12
2022-10-17T09:29:24.684Z,91.15
2022-10-17T09:32:01.674Z,91.08
2022-10-17T09:34:32.438Z,91.05
2022-10-17T09:37:00.424Z,91.14
2022-10-17T09:39:32.001Z,91.25
2022-10-17T09:42:00.811Z,91.43
2022-10-17T09:44:30.076Z,91.41
2022-10-17T09:47:20.379Z,91.25
2022-10-17T09:49:48.869Z,91.16
2022-10-17T09:52:17.827Z,91.57
2022-10-17T09:54:46.624Z,91.41
2022-10-17T09:57:15.523Z,91.55
2022-10-17T09:59:44.714Z,91.64
2022-10-17T10:02:21.255Z,91.70
2022-10-17T10:05:07.477Z,91.81
2022-10-17T10:07:37.373Z,91.94
2022-10-17T10:10:07.353Z,91.74
2022-10-17T10:12:36.133Z,91.72
2022-10-17T10:15:22.861Z,91.64
2022-10-17T10:17:50.905Z,91.46
2022-10-17T10:20:34.461Z,91.41
2022-10-17T10:23:14.375Z,91.33
2022-10-17T10:25:54.970Z,91.41
2022-10-17T10:28:26.254Z,91.31
2022-10-17T10:30:54.530Z,91.35
2022-10-17T10:33:25.760Z,91.46
2022-10-17T10:35:56.383Z,91.42
2022-10-17T10:38:23.650Z,91.48
2022-10-17T10:40:52.950Z,91.60
2022-10-17T10:43:27.219Z,91.60
2022-10-17T10:45:54.178Z,91.70
2022-10-17T10:48:24.625Z,91.60
2022-10-17T10:50:56.334Z,91.72
2022-10-17T10:53:35.141Z,91.51
2022-10-17T10:56:08.693Z,91.38
2022-10-17T10:58:43.524Z,91.53
2022-10-17T11:01:19.967Z,91.48
2022-10-17T11:03:57.518Z,91.61
2022-10-17T11:06:28.710Z,91.54
2022-10-17T11:09:11.000Z,91.60
2022-10-17T11:11:44.070Z,91.46
2022-10-17T11:14:16.362Z,91.65
2022-10-17T11:16:48.073Z,91.58
2022-10-17T11:19:21.147Z,91.66
2022-10-17T11:21:53.666Z,91.76
2022-10-17T11:24:25.021Z,91.86
2022-10-17T11:26:56.679Z,91.92
2022-10-17T11:29:28.211Z,91.91
2022-10-17T11:31:58.521Z,91.86
2022-10-17T11:34:30.923Z,91.81
2022-10-17T11:37:02.348Z,92.15
2022-10-17T11:39:34.052Z,91.78
2022-10-17T11:42:07.168Z,92.03
2022-10-17T11:44:36.741Z,91.96
2022-10-17T11:47:07.545Z,92.01
2022-10-17T11:49:41.075Z,92.08
2022-10-17T11:52:37.750Z,92.24
2022-10-17T11:55:16.197Z,92.26
2022-10-17T11:57:55.601Z,92.18
2022-10-17T12:00:30.495Z,92.28
2022-10-17T12:03:13.941Z,92.25
2022-10-17T12:05:48.620Z,92.19
2022-10-17T12:08:25.264Z,92.28
2022-10-17T12:10:58.068Z,92.16
2022-10-17T12:13:47.797Z,92.32
2022-10-17T12:16:45.397Z,92.31
2022-10-17T12:19:25.167Z,92.10
2022-10-17T12:21:59.002Z,92.23
2022-10-17T12:24:45.154Z,92.52
2022-10-17T12:27:32.826Z,92.18
2022-10-17T12:30:01.411Z,92.21
2022-10-17T12:32:36.809Z,92.29
2022-10-17T12:35:20.979Z,92.18
2022-10-17T12:38:03.705Z,92.13
2022-10-17T12:40:55.068Z,92.15
2022-10-17T12:43:57.270Z,92.33
2022-10-17T12:46:46.818Z,92.22
2022-10-17T12:49:41.204Z,92.13
2022-10-17T12:52:27.130Z,92.17
2022-10-17T12:55:13.985Z,91.99
2022-10-17T12:57:47.510Z,91.87
2022-10-17T13:00:22.553Z,92.12
2022-10-17T13:02:52.607Z,92.14
2022-10-17T13:05:25.543Z,92.31
2022-10-17T13:07:53.393Z,92.08
2022-10-17T13:10:23.828Z,92.11
2022-10-17T13:12:52.248Z,91.77
2022-10-17T13:15:20.225Z,92.06
2022-10-17T13:17:56.833Z,91.99
2022-10-17T13:20:30.587Z,92.13
2022-10-17T13:22:59.352Z,92.20
2022-10-17T13:25:28.207Z,92.18
2022-10-17T13:28:08.222Z,92.31
2022-10-17T13:30:36.963Z,92.29
2022-10-17T13:33:04.163Z,92.43
2022-10-17T13:35:58.789Z,92.37
2022-10-17T13:38:24.424Z,92.38
2022-10-17T13:41:01.366Z,92.39
2022-10-17T13:43:32.931Z,92.30
2022-10-17T13:46:25.641Z,92.46
2022-10-17T13:48:52.929Z,92.49
2022-10-17T13:51:20.243Z,92.71
2022-10-17T13:53:46.929Z,92.58
2022-10-17T13:56:28.353Z,92.77
2022-10-17T13:58:58.459Z,92.76
2022-10-17T14:01:27.040Z,92.77
2022-10-17T14:04:03.388Z,92.87
2022-10-17T14:06:37.163Z,92.67
2022-10-17T14:09:07.683Z,92.72
2022-10-17T14:11:37.916Z,92.82
2022-10-17T14:14:07.773Z,92.82
2022-10-17T14:16:38.953Z,92.93
2022-10-17T14:19:07.027Z,92.90
2022-10-17T14:21:43.897Z,92.78
2022-10-17T14:24:26.370Z,92.74
2022-10-17T14:26:58.591Z,92.83
2022-10-17T14:29:27.283Z,92.73
2022-10-17T14:32:02.796Z,92.90
2022-10-17T14:34:33.974Z,92.78
2022-10-17T14:37:02.894Z,92.73
2022-10-17T14:39:29.914Z,92.77
2022-10-17T14:42:03.417Z,92.77
2022-10-17T14:44:33.866Z,92.80
2022-10-17T14:47:18.170Z,92.64
2022-10-17T14:49:51.438Z,92.82
2022-10-17T14:52:27.969Z,92.73
2022-10-17T14:54:55.760Z,92.78
2022-10-17T14:57:34.885Z,92.78
2022-10-17T15:00:01.659Z,92.72
2022-10-17T15:02:30.318Z,92.56
2022-10-17T15:04:57.350Z,92.52
2022-10-17T15:07:24.245Z,92.38
2022-10-17T15:09:52.839Z,92.48
2022-10-17T15:12:20.545Z,92.50
2022-10-17T15:14:48.721Z,92.33
2022-10-17T15:17:18.982Z,92.23
2022-10-17T15:19:45.707Z,92.54
2022-10-17T15:22:12.526Z,92.28
2022-10-17T15:24:39.818Z,92.23
2022-10-17T15:27:13.758Z,92.33
2022-10-17T15:29:40.439Z,92.46
2022-10-17T15:32:08.420Z,92.42
2022-10-17T15:34:35.164Z,92.13
2022-10-17T15:37:02.258Z,92.31
2022-10-17T15:39:28.910Z,92.20
2022-10-17T15:41:55.519Z,92.29
2022-10-17T15:44:22.635Z,92.35
2022-10-17T15:46:49.452Z,92.30
2022-10-17T15:49:19.897Z,92.05
2022-10-17T15:51:47.752Z,92.12
2022-10-17T15:54:15.987Z,92.09
2022-10-17T15:56:43.298Z,91.96
2022-10-17T15:59:14.023Z,91.96
2022-10-17T16:01:41.478Z,91.91
2022-10-17T16:04:12.554Z,91.89
2022-10-17T16:06:40.966Z,92.24
2022-10-17T16:09:07.734Z,91.91
2022-10-17T16:11:37.461Z,91.86
2022-10-17T16:14:07.659Z,91.94
2022-10-17T16:16:34.725Z,91.99
2022-10-17T16:19:02.361Z,91.78
2022-10-17T16:21:32.515Z,91.98
2022-10-17T16:24:00.764Z,91.99
2022-10-17T16:26:28.302Z,92.40
2022-10-17T16:28:56.213Z,91.99
2022-10-17T16:31:25.159Z,92.20
2022-10-17T16:33:54.607Z,92.04
2022-10-17T16:36:21.303Z,91.78
2022-10-17T16:38:49.800Z,92.00
2022-10-17T16:41:23.584Z,91.86
2022-10-17T16:43:51.538Z,91.74
2022-10-17T16:46:20.633Z,91.76
2022-10-17T16:48:50.459Z,91.75
2022-10-17T16:51:18.899Z,91.77
2022-10-17T16:53:45.624Z,91.82
2022-10-17T16:56:15.815Z,91.70
2022-10-17T16:58:47.018Z,91.79
2022-10-17T17:01:15.613Z,91.76
2022-10-17T17:03:43.365Z,91.83
2022-10-17T17:06:14.375Z,91.79
2022-10-17T17:08:42.528Z,91.64
2022-10-17T17:11:10.863Z,91.69
2022-10-17T17:13:37.730Z,91.81
2022-10-17T17:16:08.283Z,91.84
2022-10-17T17:18:36.047Z,91.64
2022-10-17T17:21:05.680Z,91.76
2022-10-17T17:23:35.038Z,91.89
2022-10-17T17:26:04.600Z,92.23
2022-10-17T17:28:32.362Z,91.88
2022-10-17T17:30:59.231Z,91.70
2022-10-17T17:33:29.945Z,91.80
2022-10-17T17:35:58.055Z,91.74
2022-10-17T17:38:24.878Z,91.67
2022-10-17T17:40:51.822Z,91.73
2022-10-17T17:43:18.650Z,91.89
2022-10-17T17:45:45.307Z,91.71
2022-10-17T17:48:12.460Z,91.73
2022-10-17T17:50:41.978Z,91.70
2022-10-17T17:53:14.644Z,91.70
2022-10-17T17:55:41.487Z,91.74
2022-10-17T17:58:08.466Z,91.64
2022-10-17T18:00:35.946Z,91.55
2022-10-17T18:03:02.802Z,91.61
2022-10-17T18:05:30.587Z,91.61
2022-10-17T18:07:58.946Z,91.51
2022-10-17T18:10:25.578Z,91.37
2022-10-17T18:12:52.338Z,91.54
2022-10-17T18:15:19.084Z,91.68
2022-10-17T18:17:45.810Z,91.54
2022-10-17T18:20:12.634Z,91.65
2022-10-17T18:22:39.955Z,91.73
2022-10-17T18:25:09.053Z,91.59
2022-10-17T18:27:35.660Z,91.71
2022-10-17T18:30:02.306Z,91.67
2022-10-17T18:32:33.365Z,91.78
2022-10-17T18:35:00.336Z,91.53
2022-10-17T18:37:27.019Z,91.63
2022-10-17T18:39:55.839Z,91.57
2022-10-17T18:42:30.060Z,91.60
2022-10-17T18:45:00.504Z,91.63
2022-10-17T18:47:27.318Z,91.66
2022-10-17T18:49:54.171Z,91.67
2022-10-17T18:52:20.863Z,91.67
2022-10-17T18:54:47.536Z,91.69
2022-10-17T18:57:14.161Z,91.72
2022-10-17T18:59:42.159Z,91.87
2022-10-17T19:02:12.901Z,91.77
2022-10-17T19:04:40.261Z,91.82
2022-10-17T19:07:06.882Z,91.81
2022-10-17T19:09:33.603Z,91.66
2022-10-17T19:12:00.428Z,91.82
2022-10-17T19:14:28.653Z,91.75
2022-10-17T19:16:57.536Z,91.95
2022-10-17T19:19:25.935Z,91.81
2022-10-17T19:21:52.941Z,91.92
2022-10-17T19:24:21.527Z,91.84
2022-10-17T19:26:50.355Z,91.91
2022-10-17T19:29:18.238Z,91.88
2022-10-17T19:31:46.062Z,91.81
2022-10-17T19:34:15.231Z,91.69
2022-10-17T19:36:42.254Z,91.76
2022-10-17T19:39:12.196Z,91.81
2022-10-17T19:41:40.571Z,91.84
2022-10-17T19:44:07.186Z,91.81
2022-10-17T19:46:39.359Z,91.79
2022-10-17T19:49:06.819Z,91.85
2022-10-17T19:51:34.863Z,91.78
2022-10-17T19:54:01.783Z,91.83
2022-10-17T19:56:30.377Z,91.88
2022-10-17T19:58:57.849Z,91.87
2022-10-17T20:01:26.407Z,91.73
2022-10-17T20:03:57.734Z,91.71
2022-10-17T20:06:24.986Z,91.59
2022-10-17T20:08:53.266Z,91.61
2022-10-17T20:11:22.563Z,91.57
2022-10-17T20:13:49.173Z,91.59
2022-10-17T20:16:17.851Z,91.68
2022-10-17T20:18:44.755Z,91.62
2022-10-17T20:21:14.176Z,91.40
2022-10-17T20:23:41.750Z,91.60
2022-10-17T20:26:25.779Z,91.58
2022-10-17T20:29:01.153Z,91.71
2022-10-17T20:31:28.086Z,91.53
2022-10-17T20:33:55.713Z,91.56
2022-10-17T20:36:23.989Z,91.46
2022-10-17T20:38:53.495Z,91.36
2022-10-17T20:41:22.352Z,91.47
2022-10-17T20:43:51.578Z,91.39
2022-10-17T20:46:34.928Z,91.29
2022-10-17T20:49:03.657Z,91.14
2022-10-17T20:51:33.339Z,91.41
2022-10-17T20:54:00.045Z,91.25
2022-10-17T20:56:30.417Z,91.34
2022-10-17T20:58:59.183Z,91.41
2022-10-17T21:01:26.909Z,91.38
2022-10-17T21:03:53.698Z,91.44
2022-10-17T21:06:21.307Z,91.65
2022-10-17T21:08:49.234Z,91.89
2022-10-17T21:11:18.077Z,91.85
2022-10-17T21:13:47.503Z,91.74
2022-10-17T21:16:17.467Z,91.76
2022-10-17T21:18:45.095Z,91.81
2022-10-17T21:21:13.506Z,91.88
2022-10-17T21:23:41.863Z,92.01
2022-10-17T21:26:09.880Z,92.01
2022-10-17T21:28:38.442Z,92.09
2022-10-17T21:31:22.960Z,92.01
2022-10-17T21:33:51.543Z,91.79
2022-10-17T21:36:18.483Z,91.80
2022-10-17T21:38:47.355Z,91.70
2022-10-17T21:41:16.289Z,91.74
2022-10-17T21:43:43.750Z,91.68
2022-10-17T21:46:14.469Z,91.71
2022-10-17T21:48:41.893Z,91.73
2022-10-17T21:51:09.970Z,91.72
2022-10-17T21:53:37.045Z,91.64
2022-10-17T21:56:05.334Z,91.67
2022-10-17T21:58:32.572Z,91.55
2022-10-17T22:01:07.757Z,91.52
2022-10-17T22:03:36.813Z,91.41
2022-10-17T22:06:13.055Z,91.30
2022-10-17T22:11:20.802Z,91.19
2022-10-17T22:13:47.428Z,91.12
2022-10-17T22:16:16.288Z,91.16
2022-10-17T22:18:44.272Z,91.17
2022-10-17T22:21:16.588Z,90.97
2022-10-17T22:23:44.968Z,90.97
2022-10-17T22:26:12.295Z,90.95
2022-10-17T22:28:41.073Z,90.82
2022-10-17T22:31:08.525Z,90.97
2022-10-17T22:33:37.144Z,90.49
2022-10-17T22:37:15.475Z,90.58
2022-10-17T22:39:42.303Z,90.63
2022-10-17T22:42:09.025Z,90.47
2022-10-17T22:44:35.983Z,90.66
2022-10-17T22:47:02.586Z,90.41
2022-10-17T22:49:29.189Z,90.40
2022-10-17T22:51:55.775Z,90.49
2022-10-17T22:54:24.017Z,90.39
2022-10-17T22:56:50.625Z,90.42
2022-10-17T22:59:17.470Z,90.44
2022-10-17T23:01:44.148Z,90.53
2022-10-17T23:04:10.852Z,90.68
2022-10-17T23:06:37.454Z,90.57
2022-10-17T23:09:04.564Z,90.46
2022-10-17T23:11:32.518Z,90.66
2022-10-17T23:13:59.165Z,90.57
2022-10-17T23:16:25.796Z,90.71
2022-10-17T23:18:52.944Z,90.66
2022-10-17T23:21:19.600Z,90.68
2022-10-17T23:23:46.336Z,90.70
2022-10-17T23:26:14.393Z,90.71
2022-10-17T23:28:43.196Z,90.79
2022-10-17T23:31:12.692Z,90.67
2022-10-17T23:33:41.382Z,90.78
2022-10-17T23:36:09.518Z,90.90
2022-10-17T23:38:36.294Z,91.08
2022-10-17T23:41:02.922Z,91.18
2022-10-17T23:43:31.740Z,91.27
2022-10-17T23:46:00.140Z,91.33
2022-10-17T23:48:26.955Z,91.06
2022-10-17T23:50:54.091Z,91.22
2022-10-17T23:53:21.263Z,91.20
2022-10-17T23:55:47.848Z,91.24
2022-10-17T23:58:14.882Z,91.25
